ADDS METAR Data INFO
IDs: Format: Raw Decoded Include TAF

Data at: 1619 UTC 25 Apr 2018

KBPG 251615Z AUTO 01015G20KT 1/4SM OVC013 07/05 A3033 RMK AO2 LTG DSNT S T00730050
KBPG 251555Z AUTO 01011G21KT 1/2SM OVC015 07/05 A3033 RMK AO2 VIS M1/4V5 LTG DSNT SE T00740054
KBPG 251535Z AUTO 01016G21KT 10SM OVC015 07/05 A3033 RMK AO2 LTG DSNT NE AND S T00730051
KBPG 251515Z AUTO 01016G21KT 10SM BKN012 OVC016 07/06 A3032 RMK AO2 T00720056
KBPG 251455Z AUTO 02011KT 7SM SCT010 BKN016 OVC023 07/06 A3032 RMK AO2 LTG DSNT S T00700060
KBPG 251435Z AUTO 01015G25KT 7SM SCT008 SCT013 OVC023 07/06 A3031 RMK AO2 LTG DSNT S AND SW T00700058
KBPG 251415Z AUTO 36022G25KT 3SM SCT015 BKN020 OVC026 07/06 A3031 RMK AO2 LTG DSNT NE T00720060
KBPG 251355Z AUTO 02017G29KT 2 1/2SM OVC024 08/06 A3029 RMK AO2 LTG DSNT SE T00780055
KBPG 251335Z AUTO 02018KT 10/04 A3028 RMK AO2 T01020039
KBPG 251315Z AUTO 02016G21KT 7SM OVC025 10/04 A3027 RMK AO2 T01000037
KBPG 251255Z AUTO 01019G25KT 5SM OVC025 10/04 A3026 RMK AO2 T01020039
KBPG 251235Z AUTO 02013G21KT 7SM OVC025 11/04 A3025 RMK AO2 T01050041
KBPG 251215Z AUTO 03016G21KT 7SM BKN025 OVC049 11/04 A3023 RMK AO2 T01050043
KBPG 251155Z AUTO 03019G26KT 10SM BKN025 OVC049 11/05 A3021 RMK AO2 T01070045 10195 20107
KBPG 251135Z AUTO 03019G24KT 7SM OVC025 11/05 A3020 RMK AO2 T01080047
KBPG 251115Z AUTO 02018G23KT 7SM OVC023 11/05 A3020 RMK AO2 T01090050
KBPG 251055Z AUTO 03017G21KT 7SM OVC025 11/06 A3020 RMK AO2 T01130055
KBPG 251035Z AUTO 02017G22KT 10SM OVC025 12/06 A3020 RMK AO2 T01180060
KBPG 251015Z AUTO 02017G23KT 10SM OVC025 12/06 A3019 RMK AO2 T01200062
KBPG 250955Z AUTO 03020G25KT 10SM BKN023 OVC050 12/07 A3018 RMK AO2 T01220065
KBPG 250935Z AUTO 02015G22KT 10SM SCT023 OVC050 12/07 A3017 RMK AO2 T01230065
KBPG 250915Z AUTO 02012KT 7SM OVC050 13/07 A3015 RMK AO2 T01260068
KBPG 250855Z AUTO 02015G19KT 7SM SCT017 OVC055 13/07 A3014 RMK AO2 LTG DSNT E T01270071
KBPG 250835Z AUTO 03019G23KT 10SM OVC015 13/07 A3014 RMK AO2 LTG DSNT E T01300074
KBPG 250815Z AUTO 04017G23KT 10SM OVC015 13/08 A3014 RMK AO2 LTG DSNT E T01310075
KBPG 250755Z AUTO 04022G29KT 10SM OVC015 13/08 A3015 RMK AO2 LTG DSNT E T01320075
KBPG 250735Z AUTO 03014G22KT 7SM VCTS BKN013 OVC060 14/08 A3015 RMK AO2 LTG DSNT E T01380076
KBPG 250715Z AUTO 03017G24KT 10SM BKN060 BKN080 15/09 A3015 RMK AO2 LTG DSNT NE AND E T01460086
KBPG 250655Z AUTO 03021G26KT 10SM SCT060 SCT080 SCT090 16/09 A3014 RMK AO2 LTG DSNT NE T01560094
KBPG 250635Z AUTO 04019G27KT 10SM SCT060 BKN075 BKN090 18/12 A3013 RMK AO2 LTG DSNT NE AND E T01800123
KBPG 250615Z AUTO 04016KT 10SM BKN060 BKN080 OVC090 19/12 A3013 RMK AO2 LTG DSNT NE T01900121
KBPG 250555Z AUTO 04017G25KT 10SM VCTS BKN070 OVC085 19/12 A3012 RMK AO2 LTG DSNT NE AND W T01930119 10323 20190 403380133
KBPG 250535Z AUTO 05016KT 10SM BKN070 BKN085 BKN120 19/12 A3009 RMK AO2 LTG DSNT NE T01900118
KBPG 250515Z AUTO 05016G22KT 10SM SCT070 SCT120 19/12 A3009 RMK AO2 LTG DSNT NE T01900120
KBPG 250455Z AUTO 06020G26KT 10SM BKN120 19/12 A3008 RMK AO2 LTG DSNT NE AND E T01900121
KBPG 250435Z AUTO 06019KT 10SM CLR 19/12 A3007 RMK AO2 T01910117
KBPG 250415Z AUTO 06020G28KT 10SM CLR 19/12 A3006 RMK AO2 T01920118
KBPG 250355Z AUTO 06018G24KT 10SM CLR 20/12 A3004 RMK AO2 T01950118
KBPG 250335Z AUTO 07016G24KT 10SM CLR 20/12 A3003 RMK AO2 T02000115
KBPG 250315Z AUTO 07020G24KT 10SM CLR 21/11 A3002 RMK AO2 LTG DSNT E T02070109
KBPG 250255Z AUTO 07018G24KT 10SM CLR 21/11 A3000 RMK AO2 T02110107
KBPG 250235Z AUTO 07019G24KT 10SM CLR 22/10 A3000 RMK AO2 T02170104
KBPG 250215Z AUTO 07018G23KT 10SM CLR 22/10 A2999 RMK AO2 T02220101
KBPG 250155Z AUTO 07017G23KT 10SM CLR 23/10 A2998 RMK AO2 T02250101
KBPG 250135Z AUTO 06018G27KT 10SM CLR 23/10 A2997 RMK AO2 LTG DSNT SE T02300098
KBPG 250115Z AUTO 06024G34KT 7SM SCT120 24/10 A2996 RMK AO2 T02410096
KBPG 250055Z AUTO 05026G30KT 7SM CLR 27/08 A2994 RMK AO2 T02710081
KBPG 250035Z AUTO 13004KT 10SM CLR 32/02 A2993 RMK AO2 T03160015
KBPG 250015Z AUTO 00000KT 10SM CLR 32/01 A2992 RMK AO2 T03200013
KBPG 242355Z AUTO 16004KT 10SM CLR 32/01 A2992 RMK AO2 T03240013 10338 20303
KBPG 242335Z AUTO 14006KT 10SM CLR 32/01 A2993 RMK AO2 T03230010
KBPG 242315Z AUTO 00000KT 10SM SCT120 33/01 A2993 RMK AO2 T03250010
KBPG 242255Z AUTO 18015KT 10SM SCT120 33/02 A2993 RMK AO2 T03290015
KBPG 242235Z AUTO 15008KT 10SM CLR 32/02 A2993 RMK AO2 T03240016
KBPG 242215Z AUTO 20010G14KT 10SM CLR 33/02 A2993 RMK AO2 T03260018
KBPG 242155Z AUTO 22012G16KT 10SM CLR 33/02 A2994 RMK AO2 T03270015
KBPG 242135Z AUTO 19005G15KT 10SM SCT120 33/01 A2994 RMK AO2 T03290008
KBPG 242115Z AUTO 17012G18KT 10SM CLR 32/02 A2995 RMK AO2 T03240023
KBPG 242055Z AUTO 22009KT 10SM SCT110 32/04 A2996 RMK AO2 T03230036
KBPG 242035Z AUTO 16010G14KT 10SM CLR 33/04 A2997 RMK AO2 T03290041
KBPG 242015Z AUTO 17010G17KT 10SM CLR 33/05 A2998 RMK AO2 T03340051
KBPG 241955Z AUTO 21012G19KT 10SM CLR 33/05 A2999 RMK AO2 T03290048
KBPG 241935Z AUTO 20010G18KT 130V230 10SM CLR 33/06 A3000 RMK AO2 T03250063
KBPG 241915Z AUTO 16010G19KT 10SM CLR 32/07 A3001 RMK AO2 T03210068
KBPG 241855Z AUTO 19010G14KT 10SM CLR 32/07 A3002 RMK AO2 T03210069
KBPG 241835Z AUTO 19015G19KT 10SM CLR 32/07 A3003 RMK AO2 T03150068
KBPG 241815Z AUTO 20017KT 10SM CLR 31/07 A3004 RMK AO2 T03050073
KBPG 241755Z AUTO 15010G18KT 10SM CLR 31/08 A3005 RMK AO2 T03060082 10306 20135
KBPG 241735Z AUTO 16010G18KT 10SM CLR 30/09 A3005 RMK AO2 T02960093
KBPG 241715Z AUTO 16012G16KT 10SM CLR 29/10 A3005 RMK AO2 T02890097
KBPG 241655Z AUTO 18012G17KT 10SM CLR 28/10 A3006 RMK AO2 T02760102
KBPG 241635Z AUTO 17010G16KT 10SM CLR 27/11 A3007 RMK AO2 T02730105
KBPG 241615Z AUTO 17011KT 10SM CLR 26/10 A3007 RMK AO2 T02590104
KBPG 241555Z AUTO 18011G16KT 10SM CLR 25/11 A3007 RMK AO2 T02530105
KBPG 241535Z AUTO 17011KT 10SM CLR 24/10 A3008 RMK AO2 T02410101
KBPG 241515Z AUTO 18013G17KT 10SM CLR 23/10 A3008 RMK AO2 T02320102
KBPG 241455Z AUTO 17013KT 10SM CLR 23/10 A3009 RMK AO2 T02250100
KBPG 241435Z AUTO 15010KT 10SM CLR 21/10 A3009 RMK AO2 T02130097
KBPG 241415Z AUTO 15009KT 10SM CLR 20/09 A3009 RMK AO2 T02010094
KBPG 241355Z AUTO 15008KT 10SM CLR 20/09 A3009 RMK AO2 T01950093
KBPG 241335Z AUTO 14008KT 10SM CLR 19/09 A3009 RMK AO2 T01860085
KBPG 241315Z AUTO 13007KT 10SM CLR 18/08 A3009 RMK AO2 T01750080
KBPG 241255Z AUTO 10005KT 10SM CLR 15/07 A3009 RMK AO2 T01520066
KBPG 241235Z AUTO 09004KT 10SM CLR 14/06 A3009 RMK AO2 T01380058
KBPG 241215Z AUTO 10005KT 10SM CLR 14/06 A3007 RMK AO2 T01350055
KBPG 241155Z AUTO 10006KT 10SM SCT110 14/05 A3006 RMK AO2 T01350053 10195 20133
KBPG 241135Z AUTO 09005KT 10SM SCT110 13/05 A3006 RMK AO2 T01340052
KBPG 241115Z AUTO 09005KT 10SM CLR 14/06 A3005 RMK AO2 T01400055
KBPG 241055Z AUTO 10005KT 10SM CLR 15/06 A3005 RMK AO2 T01480057
KBPG 241035Z AUTO 10007KT 10SM CLR 15/06 A3005 RMK AO2 T01530056
KBPG 241015Z AUTO 11006KT 10SM CLR 16/05 A3004 RMK AO2 T01580053
KBPG 240955Z AUTO 11007KT 10SM CLR 16/05 A3004 RMK AO2 T01610050
KBPG 240935Z AUTO 11008KT 10SM CLR 16/05 A3004 RMK AO2 T01640046
KBPG 240915Z AUTO 11008KT 10SM CLR 17/05 A3004 RMK AO2 T01680045
KBPG 240855Z AUTO 11009KT 10SM CLR 17/04 A3004 RMK AO2 T01720043
KBPG 240835Z AUTO 11010KT 10SM CLR 18/04 A3004 RMK AO2 T01760041
KBPG 240815Z AUTO 12013KT 10SM CLR 18/04 A3004 RMK AO2 T01780041
KBPG 240755Z AUTO 12011KT 10SM CLR 18/04 A3004 RMK AO2 T01810040
KBPG 240735Z AUTO 12010KT 10SM CLR 18/04 A3004 RMK AO2 T01820040
KBPG 240710Z AUTO 12012KT 10SM CLR 19/04 A3004 RMK AO2 T01860040
KBPG 240655Z AUTO 12012KT 10SM CLR 19/04 A3005 RMK AO2 T01870037
KBPG 240635Z AUTO 13011KT 10SM CLR 19/04 A3005 RMK AO2 T01880037
KBPG 240615Z AUTO 13010KT 10SM CLR 19/04 A3005 RMK AO2 T01900037
KBPG 240555Z AUTO 13012KT 10SM CLR 20/04 A3006 RMK AO2 T01950039 10277 20195 402790102
KBPG 240535Z AUTO 12012KT 10SM CLR 20/04 A3006 RMK AO2 T01970040
KBPG 240515Z AUTO 12011KT 10SM CLR 20/04 A3006 RMK AO2 T02000040
KBPG 240455Z AUTO 12010KT 10SM CLR 20/04 A3005 RMK AO2 T02010040
KBPG 240435Z AUTO 12009KT 10SM CLR 21/04 A3005 RMK AO2 T02050040